Дата Пункты Температура Давл., мм. Влажн., % Ветер Погодные явления
Воздуха Воды Направл. Скорость
26.01.18 02:00 Одесса -6.0 3.0 771 88 В 2 02 ЧАСА
25.01.18 11:00 Одесса -5.0 2.0 771 88 В 4 23 ЧАСА
25.01.18 08:00 Одесса -3.0 2.0 771 76 В 3 20 ЧАСОВ
25.01.18 05:00 Одесса -2.0 2.0 771 75 Ю-В 4 17 ЧАСОВ
25.01.18 02:00 Одесса -1.0 2.0 771 77 Ю-В 5 14 ЧАСОВ
25.01.18 11:00 Одесса -1.0 1.0 772 75 В 4 11 ЧАСОВ
25.01.18 08:00 Одесса -7.0 1.0 772 95 С 1 08 ЧАСОВ
25.01.18 05:00 Одесса -8.0 1.0 772 96 С 1 05 ЧАСОВ
25.01.18 02:00 Одесса -8.0 1.0 773 91 С 1 02 ЧАСА
24.01.18 11:00 Одесса -8.0 1.0 773 80 С-З 1 23 ЧАСА
24.01.18 08:00 Одесса -6.0 1.0 773 72 С-З 2 20 ЧАСОВ
24.01.18 05:00 Одесса -4.0 1.0 773 71 С 2 17 ЧАСОВ
24.01.18 02:00 Одесса -2.0 1.0 773 66 С-З 2 14 ЧАСОВ
24.01.18 11:00 Одесса -5.0 2.0 773 72 С 5 11 ЧАСОВ
24.01.18 08:00 Одесса -9.0 2.0 771 80 С 4 08 ЧАСОВ
24.01.18 05:00 Одесса -9.0 0.0 770 80 С-З 4 05 ЧАСОВ
24.01.18 02:00 Одесса -8.0 0.0 769 82 С 4 02 ЧАСА
23.01.18 11:00 Одесса -8.0 2.0 768 85 С 4 23 ЧАСА
23.01.18 08:00 Одесса -7.0 2.0 766 84 С 5 20 ЧАСОВ
23.01.18 05:00 Одесса -6.0 2.0 765 87 С-З 3 17 ЧАСОВ
Количество строк
1 2 3 4 5 6 7 8 9 10
Page 10 of 330